Time;durP1;ratioP1;P1;durP2;ratioP2;P2;SDS_P1;SDS_P2;PMS_P1;PMS_P2;Temp;Humidity;BMP_temperature;BMP_pressure;BME280_temperature;BME280_humidity;BME280_pressure;Samples;Min_cycle;Max_cycle;Signal;HPM_P1;HPM_P2
2023/07/05 00:00:05;;;;;;;3.30;1.55;;;;;;;-145.69;100.00;52087.94;5076033;28;20199;-93
2023/07/05 00:02:32;;;;;;;2.67;1.38;;;;;;;-145.69;100.00;52080.00;5075598;28;20301;-92
2023/07/05 00:04:58;;;;;;;4.15;1.83;;;;;;;-145.69;100.00;52099.81;5075239;28;20661;-93
2023/07/05 00:07:26;;;;;;;2.78;1.50;;;;;;;-145.69;100.00;52139.41;5075461;28;20206;-92
2023/07/05 00:09:53;;;;;;;1.42;1.10;;;;;;;-145.69;100.00;52119.63;5075675;28;20230;-93
2023/07/05 00:12:20;;;;;;;2.53;1.70;;;;;;;-145.69;100.00;52139.41;5075890;28;20210;-93
2023/07/05 00:14:47;;;;;;;3.50;1.45;;;;;;;-145.69;100.00;52121.59;5075141;28;20286;-92
2023/07/05 00:17:13;;;;;;;2.03;1.33;;;;;;;-145.69;100.00;52117.63;5075236;28;20226;-91
2023/07/05 00:19:41;;;;;;;2.80;1.40;;;;;;;-145.69;100.00;52115.66;5073133;28;20550;-92
2023/07/05 00:22:07;;;;;;;2.17;1.52;;;;;;;-145.69;100.00;52121.59;5054931;28;20673;-92
2023/07/05 00:24:36;;;;;;;2.15;1.30;;;;;;;-145.69;100.00;52133.47;5055330;28;20214;-92
2023/07/05 00:27:02;;;;;;;2.63;1.23;;;;;;;-145.69;100.00;52125.56;5054883;28;20318;-92
2023/07/05 00:29:29;;;;;;;3.75;1.50;;;;;;;-145.69;100.00;52139.41;5055242;28;20704;-93
2023/07/05 00:31:56;;;;;;;3.08;1.55;;;;;;;-145.69;100.00;52107.72;5055223;28;20208;-92
2023/07/05 00:34:22;;;;;;;2.65;1.45;;;;;;;-145.69;100.00;52099.81;5054929;28;20849;-92
2023/07/05 00:36:49;;;;;;;2.50;1.40;;;;;;;-145.69;100.00;52095.84;5055228;28;20657;-92
2023/07/05 00:39:16;;;;;;;3.25;1.33;;;;;;;-145.69;100.00;52117.63;5054712;28;20207;-92
2023/07/05 00:41:43;;;;;;;1.45;1.13;;;;;;;-145.69;100.00;52101.78;5054864;28;20219;-92
2023/07/05 00:44:12;;;;;;;2.78;1.40;;;;;;;-145.69;100.00;52103.78;5054635;28;20249;-90
2023/07/05 00:46:44;;;;;;;2.92;1.40;;;;;;;-145.69;100.00;52123.56;5055013;28;20293;-93
2023/07/05 00:49:15;;;;;;;3.28;1.25;;;;;;;-145.69;100.00;52087.94;5054827;28;20286;-92
2023/07/05 00:51:47;;;;;;;2.20;1.35;;;;;;;-145.69;100.00;52095.84;5054486;28;20315;-90
2023/07/05 00:54:16;;;;;;;2.55;1.35;;;;;;;-145.69;100.00;52103.78;5054753;28;20231;-92
2023/07/05 00:56:48;;;;;;;1.75;1.30;;;;;;;-145.69;100.00;52119.63;5054669;28;20223;-92
2023/07/05 00:59:16;;;;;;;10.82;1.30;;;;;;;-145.69;100.00;52093.88;5054746;28;20290;-92
2023/07/05 01:01:44;;;;;;;2.53;1.00;;;;;;;-145.69;100.00;52115.66;5054671;28;20215;-93
2023/07/05 01:04:11;;;;;;;2.35;1.23;;;;;;;-145.69;100.00;52109.72;5054605;28;20207;-92
2023/07/05 01:06:39;;;;;;;2.70;1.20;;;;;;;-145.69;100.00;52085.94;5054274;28;20254;-93
2023/07/05 01:09:07;;;;;;;1.92;1.10;;;;;;;-145.69;100.00;52099.81;5054484;28;20211;-92
2023/07/05 01:11:51;;;;;;;2.30;1.30;;;;;;;-145.69;100.00;52085.94;5054505;28;20214;-92
2023/07/05 01:14:23;;;;;;;2.85;1.50;;;;;;;-145.69;100.00;52115.66;5054605;28;20257;-91
2023/07/05 01:17:03;;;;;;;2.70;1.10;;;;;;;-145.69;100.00;52115.66;5054053;28;20232;-92
2023/07/05 01:20:00;;;;;;;1.35;1.10;;;;;;;-145.69;100.00;52119.63;5054714;28;20203;-92
2023/07/05 01:22:59;;;;;;;3.60;1.20;;;;;;;-145.69;100.00;52125.56;5054469;28;20208;-92
2023/07/05 01:25:46;;;;;;;5.13;1.20;;;;;;;-145.69;100.00;52099.81;5054440;28;20566;-92
2023/07/05 01:28:42;;;;;;;2.42;1.20;;;;;;;-145.69;100.00;52107.72;5054694;28;20207;-91
2023/07/05 01:31:45;;;;;;;2.03;1.30;;;;;;;-145.69;100.00;52083.97;5054462;28;20203;-92
2023/07/05 01:34:20;;;;;;;2.08;1.20;;;;;;;-145.69;100.00;52099.81;5054986;28;20199;-92
2023/07/05 01:36:48;;;;;;;3.03;1.98;;;;;;;-145.69;100.00;52113.66;5058212;28;20222;-90
2023/07/05 01:39:15;;;;;;;3.50;1.40;;;;;;;-145.69;100.00;52089.91;5058093;28;20209;-92
2023/07/05 01:41:41;;;;;;;4.75;1.40;;;;;;;-145.69;100.00;52083.97;5058114;28;20290;-92
2023/07/05 01:44:10;;;;;;;4.68;1.20;;;;;;;-145.69;100.00;52091.88;5058019;28;20411;-92
2023/07/05 01:46:43;;;;;;;4.07;1.60;;;;;;;-145.69;100.00;52076.03;5057993;28;20692;-93
2023/07/05 01:49:32;;;;;;;2.55;1.48;;;;;;;-145.69;100.00;52093.88;5058187;28;20211;-92
2023/07/05 01:52:06;;;;;;;1.60;1.00;;;;;;;-145.69;100.00;52095.84;5057426;28;20199;-93
2023/07/05 01:54:39;;;;;;;1.80;1.23;;;;;;;-145.69;100.00;52095.84;5057698;28;20200;-92
2023/07/05 01:57:12;;;;;;;3.70;1.27;;;;;;;-145.69;100.00;52103.78;5060419;28;20219;-92
2023/07/05 01:59:43;;;;;;;1.38;1.10;;;;;;;-145.69;100.00;52107.72;5078253;28;20256;-92
2023/07/05 02:02:14;;;;;;;3.47;1.42;;;;;;;-145.69;100.00;52087.94;5076851;28;20658;-92
2023/07/05 02:04:43;;;;;;;1.38;1.10;;;;;;;-145.69;100.00;52095.84;5078508;28;20592;-92
2023/07/05 02:07:09;;;;;;;3.20;1.30;;;;;;;-145.69;100.00;52080.00;5078101;28;20213;-91
2023/07/05 02:09:37;;;;;;;2.50;1.25;;;;;;;-145.69;100.00;52109.72;5077503;28;20203;-92
2023/07/05 02:12:04;;;;;;;2.17;1.20;;;;;;;-145.69;100.00;52091.88;5077857;28;20202;-92
2023/07/05 02:14:31;;;;;;;3.80;1.40;;;;;;;-145.69;100.00;52087.94;5077790;28;20225;-92
2023/07/05 02:16:58;;;;;;;3.95;1.40;;;;;;;-145.69;100.00;52087.94;5077432;28;20226;-93
2023/07/05 02:19:24;;;;;;;2.13;1.20;;;;;;;-145.69;100.00;52091.88;5073900;28;20195;-92
2023/07/05 02:21:53;;;;;;;2.58;1.38;;;;;;;-145.69;100.00;52076.03;5077536;28;20210;-92
2023/07/05 02:24:20;;;;;;;1.85;1.27;;;;;;;-145.69;100.00;52080.00;5077651;28;20202;-91
2023/07/05 02:26:46;;;;;;;2.58;1.42;;;;;;;-145.69;100.00;52085.94;5077049;28;20213;-91
2023/07/05 02:29:13;;;;;;;3.03;1.58;;;;;;;-145.69;100.00;52091.88;5076965;28;20199;-92
2023/07/05 02:31:39;;;;;;;3.75;1.52;;;;;;;-145.69;100.00;52099.81;5077185;28;20199;-91
2023/07/05 02:34:06;;;;;;;8.77;2.15;;;;;;;-145.69;100.00;52107.72;5077075;28;20195;-90
2023/07/05 02:36:33;;;;;;;140.23;7.15;;;;;;;-145.69;100.00;52107.72;5076700;28;20202;-86
2023/07/05 02:39:01;;;;;;;7.47;2.60;;;;;;;-145.69;100.00;52113.66;5075502;28;20313;-86
2023/07/05 02:41:27;;;;;;;6.75;2.38;;;;;;;-145.69;100.00;52107.72;5075977;28;20209;-85
2023/07/05 02:43:54;;;;;;;6.78;2.42;;;;;;;-145.69;100.00;52121.59;5075805;28;20199;-85
2023/07/05 02:46:23;;;;;;;5.97;2.40;;;;;;;-145.69;100.00;52107.72;5078970;28;20653;-85
2023/07/05 02:48:49;;;;;;;6.32;2.25;;;;;;;-145.69;100.00;52115.66;5096027;28;20251;-85
2023/07/05 02:51:16;;;;;;;5.35;2.60;;;;;;;-145.69;100.00;52123.56;5095709;28;20706;-86
2023/07/05 02:53:42;;;;;;;7.68;2.25;;;;;;;-145.69;100.00;52105.75;5095998;28;20237;-86
2023/07/05 02:56:10;;;;;;;5.55;2.58;;;;;;;-145.69;100.00;52143.38;5090698;28;20207;-86
2023/07/05 02:58:37;;;;;;;3.38;1.90;;;;;;;-145.69;100.00;52147.34;5064877;28;20270;-86
2023/07/05 03:01:05;;;;;;;4.93;2.00;;;;;;;-145.69;100.00;52103.78;5075799;28;20207;-85
2023/07/05 03:03:32;;;;;;;5.70;2.60;;;;;;;-145.69;100.00;52141.41;5075941;28;20195;-86
2023/07/05 03:06:00;;;;;;;5.47;2.53;;;;;;;-145.69;100.00;52169.13;5075904;28;20206;-86
2023/07/05 03:08:28;;;;;;;10.38;3.83;;;;;;;-145.69;100.00;52157.25;5075788;28;20207;-86
2023/07/05 03:10:54;;;;;;;6.53;2.35;;;;;;;-145.69;100.00;52149.31;5075839;28;20202;-87
2023/07/05 03:13:22;;;;;;;7.07;2.58;;;;;;;-145.69;100.00;52135.47;5075708;28;20210;-87
2023/07/05 03:15:49;;;;;;;4.47;2.10;;;;;;;-145.69;100.00;52143.38;5075539;28;20237;-85
2023/07/05 03:18:16;;;;;;;6.30;2.10;;;;;;;-145.69;100.00;52151.28;5075533;28;20238;-86
2023/07/05 03:20:45;;;;;;;6.10;2.03;;;;;;;-145.69;100.00;52167.13;5075455;28;20203;-86
2023/07/05 03:23:12;;;;;;;3.63;2.10;;;;;;;-145.69;100.00;52169.13;5075202;28;20650;-86
2023/07/05 03:25:38;;;;;;;4.10;2.00;;;;;;;-145.69;100.00;52151.28;5075665;28;20622;-85
2023/07/05 03:28:11;;;;;;;4.32;1.80;;;;;;;-145.69;100.00;52163.19;5075303;28;20282;-86
2023/07/05 03:30:39;;;;;;;3.05;1.80;;;;;;;-145.69;100.00;52163.19;5075392;28;20294;-86
2023/07/05 03:33:05;;;;;;;2.00;1.50;;;;;;;-145.69;100.00;52143.38;5075668;28;20285;-87
2023/07/05 03:35:32;;;;;;;2.75;2.17;;;;;;;-145.69;100.00;52151.28;5075323;28;20217;-87
2023/07/05 03:37:59;;;;;;;6.70;2.38;;;;;;;-145.69;100.00;52179.03;5075217;28;20222;-87
2023/07/05 03:40:25;;;;;;;6.53;2.10;;;;;;;-145.69;100.00;52186.94;5075401;28;20630;-87
2023/07/05 03:42:52;;;;;;;3.17;2.08;;;;;;;-145.69;100.00;52175.06;5075105;28;20297;-87
2023/07/05 03:45:19;;;;;;;4.78;2.25;;;;;;;-145.69;100.00;52145.34;5075437;28;20214;-87
2023/07/05 03:47:47;;;;;;;5.38;2.30;;;;;;;-145.69;100.00;52151.28;5075075;28;20657;-86
2023/07/05 03:50:15;;;;;;;5.90;2.40;;;;;;;-145.69;100.00;52179.03;5074792;28;20314;-87
2023/07/05 03:52:43;;;;;;;3.90;2.03;;;;;;;-145.69;100.00;52186.94;5074946;28;20207;-87
2023/07/05 03:55:13;;;;;;;3.97;2.47;;;;;;;-145.69;100.00;52141.41;5074544;28;20232;-86
2023/07/05 03:57:42;;;;;;;6.00;3.05;;;;;;;-145.69;100.00;52171.09;5074376;28;20248;-87
2023/07/05 04:00:10;;;;;;;4.53;1.98;;;;;;;-145.69;100.00;52165.16;5074631;28;20210;-87
2023/07/05 04:02:36;;;;;;;4.10;2.15;;;;;;;-145.69;100.00;52175.06;5074440;28;20264;-86
2023/07/05 04:05:05;;;;;;;5.30;2.50;;;;;;;-145.69;100.00;52159.22;5074525;28;20203;-87
2023/07/05 04:07:32;;;;;;;4.47;2.67;;;;;;;-145.69;100.00;52143.38;5074435;28;20202;-86
2023/07/05 04:09:58;;;;;;;6.18;3.10;;;;;;;-145.69;100.00;52167.13;5074463;28;20210;-85
2023/07/05 04:12:25;;;;;;;5.72;2.95;;;;;;;-145.69;100.00;52186.94;5074273;28;20607;-86
2023/07/05 04:14:57;;;;;;;4.93;2.58;;;;;;;-145.69;100.00;52179.03;5070884;28;20202;-85
2023/07/05 04:17:26;;;;;;;9.07;3.28;;;;;;;-145.69;100.00;52151.28;5074163;28;20230;-85
2023/07/05 04:19:52;;;;;;;5.03;2.33;;;;;;;-145.69;100.00;52179.03;5074103;28;20642;-85
2023/07/05 04:22:20;;;;;;;10.75;2.65;;;;;;;-145.69;100.00;52171.09;5074187;28;20198;-85
2023/07/05 04:24:47;;;;;;;6.10;2.88;;;;;;;-145.69;100.00;52161.19;5074153;28;20199;-85
2023/07/05 04:27:14;;;;;;;3.85;2.65;;;;;;;-145.69;100.00;52157.25;5074098;28;20195;-85
2023/07/05 04:29:41;;;;;;;6.07;2.63;;;;;;;-145.69;100.00;52184.97;5073880;28;20202;-85
2023/07/05 04:32:09;;;;;;;3.72;2.50;;;;;;;-145.69;100.00;52159.22;5073922;28;20203;-86
2023/07/05 04:34:36;;;;;;;4.22;2.90;;;;;;;-145.69;100.00;52194.88;5073719;28;20198;-85
2023/07/05 04:37:02;;;;;;;7.90;3.08;;;;;;;-145.69;100.00;52179.03;5073542;28;20199;-85
2023/07/05 04:39:36;;;;;;;8.80;3.28;;;;;;;-145.69;100.00;52171.09;5073447;28;20689;-85
2023/07/05 04:42:03;;;;;;;6.63;3.00;;;;;;;-145.69;100.00;52161.19;5073755;28;20289;-85
2023/07/05 04:44:29;;;;;;;4.75;2.47;;;;;;;-145.69;100.00;52190.91;5073751;28;20256;-85
2023/07/05 04:46:56;;;;;;;5.38;2.78;;;;;;;-145.69;100.00;52137.44;5073583;28;20201;-85
2023/07/05 04:49:23;;;;;;;4.05;2.97;;;;;;;-145.69;100.00;52181.00;5073346;28;20209;-85
2023/07/05 04:51:49;;;;;;;4.78;2.40;;;;;;;-145.69;100.00;52190.91;5073487;28;20227;-86
2023/07/05 04:54:17;;;;;;;5.72;2.80;;;;;;;-145.69;100.00;52208.72;5073774;28;20234;-85
2023/07/05 04:56:45;;;;;;;7.28;2.65;;;;;;;-145.69;100.00;52190.91;5073932;28;20433;-86
2023/07/05 04:59:11;;;;;;;5.55;2.70;;;;;;;-145.69;100.00;52181.00;5073558;28;20223;-86
2023/07/05 05:01:40;;;;;;;4.55;3.22;;;;;;;-145.69;100.00;52175.06;5073605;28;20195;-86
2023/07/05 05:04:06;;;;;;;6.13;3.38;;;;;;;-145.69;100.00;52161.19;5073553;28;20194;-86
2023/07/05 05:06:33;;;;;;;4.35;3.42;;;;;;;-145.69;100.00;52171.09;5073298;28;20562;-86
2023/07/05 05:09:00;;;;;;;4.70;3.30;;;;;;;-145.69;100.00;52196.84;5072876;28;20201;-86
2023/07/05 05:11:29;;;;;;;5.55;3.42;;;;;;;-145.69;100.00;52192.88;5073501;28;20729;-85
2023/07/05 05:13:59;;;;;;;6.13;3.67;;;;;;;-145.69;100.00;52175.06;5073502;28;20205;-86
2023/07/05 05:16:27;;;;;;;7.75;4.55;;;;;;;-145.69;100.00;52212.69;5070999;28;20770;-87
2023/07/05 05:18:54;;;;;;;6.20;3.90;;;;;;;-145.69;100.00;52159.22;5073479;28;20661;-87
2023/07/05 05:21:21;;;;;;;8.30;4.07;;;;;;;-145.69;100.00;52163.19;5073437;28;20198;-86
2023/07/05 05:23:47;;;;;;;5.45;3.65;;;;;;;-145.69;100.00;52171.09;5073704;28;20198;-86
2023/07/05 05:26:14;;;;;;;5.28;3.65;;;;;;;-145.69;100.00;52153.28;5072131;28;20673;-87
2023/07/05 05:28:42;;;;;;;6.55;4.10;;;;;;;-145.69;100.00;52165.16;5073299;28;20298;-86
2023/07/05 05:31:14;;;;;;;5.93;3.63;;;;;;;-145.69;100.00;52131.50;5073243;28;20202;-86
2023/07/05 05:33:40;;;;;;;5.30;3.50;;;;;;;-145.69;100.00;52192.88;5073425;28;20202;-87
2023/07/05 05:36:07;;;;;;;5.78;3.28;;;;;;;-145.69;100.00;52169.13;5073367;28;20195;-87
2023/07/05 05:38:36;;;;;;;5.38;3.40;;;;;;;-145.69;100.00;52159.22;5073592;28;20681;-87
2023/07/05 05:41:04;;;;;;;3.83;2.40;;;;;;;-145.69;100.00;52200.81;5073248;28;20241;-87
2023/07/05 05:43:30;;;;;;;4.43;2.50;;;;;;;-145.69;100.00;52159.22;5073419;28;20230;-87
2023/07/05 05:45:57;;;;;;;3.63;2.03;;;;;;;-145.69;100.00;52155.25;5073941;28;20207;-88
2023/07/05 05:48:26;;;;;;;3.90;2.08;;;;;;;-145.69;100.00;52145.34;5073204;28;20229;-88
2023/07/05 05:50:52;;;;;;;3.50;2.15;;;;;;;-145.69;100.00;52151.28;5073250;28;20238;-88
2023/07/05 05:53:21;;;;;;;5.75;2.50;;;;;;;-145.69;100.00;52159.22;5073094;28;20297;-87
2023/07/05 05:55:47;;;;;;;5.38;2.30;;;;;;;-145.69;100.00;52151.28;5073484;28;20199;-88
2023/07/05 05:58:14;;;;;;;5.43;2.50;;;;;;;-145.69;100.00;52147.34;5073133;28;20264;-86
2023/07/05 06:00:46;;;;;;;3.20;2.08;;;;;;;-145.69;100.00;52151.28;5072846;28;20199;-88
2023/07/05 06:03:24;;;;;;;4.68;2.10;;;;;;;-145.69;100.00;52141.41;5073840;28;20203;-88
2023/07/05 06:05:57;;;;;;;2.88;2.00;;;;;;;-145.69;100.00;52155.25;5073653;28;20202;-88
2023/07/05 06:08:27;;;;;;;4.80;2.03;;;;;;;-145.69;100.00;52163.19;5073204;28;20642;-88
2023/07/05 06:11:06;;;;;;;3.28;2.53;;;;;;;-145.69;100.00;52161.19;5073195;28;20653;-89
2023/07/05 06:13:33;;;;;;;3.85;2.28;;;;;;;-145.69;100.00;52151.28;5073469;28;20202;-90
2023/07/05 06:16:01;;;;;;;4.53;2.35;;;;;;;-145.69;100.00;52157.25;5068404;28;20206;-89
2023/07/05 06:18:29;;;;;;;4.00;2.13;;;;;;;-145.69;100.00;52167.13;5053157;28;20310;-89
2023/07/05 06:20:57;;;;;;;4.40;1.90;;;;;;;-145.69;100.00;52135.47;5056707;28;20746;-88
2023/07/05 06:23:24;;;;;;;8.38;2.03;;;;;;;-145.69;100.00;52175.06;5056881;28;20290;-89
2023/07/05 06:25:51;;;;;;;3.10;2.00;;;;;;;-145.69;100.00;52169.13;5056760;28;20249;-87
2023/07/05 06:28:18;;;;;;;6.53;2.00;;;;;;;-145.69;100.00;52131.50;5056862;28;20650;-89
2023/07/05 06:30:46;;;;;;;4.55;1.88;;;;;;;-145.69;100.00;52159.22;5057124;28;20641;-89
2023/07/05 06:33:13;;;;;;;3.55;1.88;;;;;;;-145.69;100.00;52139.41;5056832;28;20290;-89
2023/07/05 06:35:40;;;;;;;3.80;1.85;;;;;;;-145.69;100.00;52163.19;5056242;28;20215;-85
2023/07/05 06:38:08;;;;;;;3.80;1.80;;;;;;;-145.69;100.00;52133.47;5055812;28;20518;-86
2023/07/05 06:40:34;;;;;;;3.58;1.85;;;;;;;-145.69;100.00;52131.50;5056465;28;20203;-87
2023/07/05 06:43:02;;;;;;;2.22;1.58;;;;;;;-145.69;100.00;52137.44;5056199;28;20242;-86
2023/07/05 06:45:28;;;;;;;3.80;1.48;;;;;;;-145.69;100.00;52119.63;5056337;28;20212;-88
2023/07/05 06:47:55;;;;;;;3.90;1.80;;;;;;;-145.69;100.00;52155.25;5056395;28;20220;-87
2023/07/05 06:50:21;;;;;;;2.90;1.52;;;;;;;-145.69;100.00;52137.44;5055585;28;20223;-85
2023/07/05 06:52:50;;;;;;;4.40;1.70;;;;;;;-145.69;100.00;52143.38;5054893;28;20200;-86
2023/07/05 06:55:20;;;;;;;3.13;1.70;;;;;;;-145.69;100.00;52141.41;5056127;28;20199;-88
2023/07/05 06:57:47;;;;;;;2.22;1.65;;;;;;;-145.69;100.00;52153.28;5056373;28;20554;-87
2023/07/05 07:00:15;;;;;;;1.63;1.33;;;;;;;-145.69;100.00;52131.50;5055365;28;20262;-85
2023/07/05 07:02:41;;;;;;;4.38;1.60;;;;;;;-145.69;100.00;52123.56;5055657;28;20290;-88
2023/07/05 07:05:08;;;;;;;2.05;1.20;;;;;;;-145.69;100.00;52125.56;5056081;28;20235;-87
2023/07/05 07:07:35;;;;;;;3.00;1.40;;;;;;;-145.69;100.00;52107.72;5055717;28;20376;-86
2023/07/05 07:10:02;;;;;;;2.38;1.20;;;;;;;-145.69;100.00;52115.66;5055989;28;20655;-86
2023/07/05 07:12:30;;;;;;;3.10;1.50;;;;;;;-145.69;100.00;52111.69;5055627;28;20199;-88
2023/07/05 07:14:57;;;;;;;2.25;1.50;;;;;;;-145.69;100.00;52145.34;5055813;28;20238;-88
2023/07/05 07:17:24;;;;;;;5.90;2.00;;;;;;;-145.69;100.00;52123.56;5055727;28;20306;-89
2023/07/05 07:19:51;;;;;;;5.93;1.67;;;;;;;-145.69;100.00;52155.25;5056055;28;20227;-88
2023/07/05 07:22:18;;;;;;;4.35;1.92;;;;;;;-145.69;100.00;52151.28;5056335;28;20203;-89
2023/07/05 07:24:45;;;;;;;8.70;2.85;;;;;;;-145.69;100.00;52157.25;5055890;28;20203;-88
2023/07/05 07:27:12;;;;;;;14.63;2.60;;;;;;;-145.69;100.00;52151.28;5055695;28;20685;-87
2023/07/05 07:29:44;;;;;;;4.82;2.50;;;;;;;-145.69;100.00;52151.28;5055364;28;20229;-87
2023/07/05 07:32:13;;;;;;;5.20;2.05;;;;;;;-145.69;100.00;52192.88;5054507;28;20742;-87
2023/07/05 07:34:40;;;;;;;8.75;2.63;;;;;;;-145.69;100.00;52171.09;5055088;28;20658;-87
2023/07/05 07:37:07;;;;;;;6.65;2.83;;;;;;;-145.69;100.00;52161.19;5055351;28;20287;-87
2023/07/05 07:39:34;;;;;;;7.45;2.42;;;;;;;-145.69;100.00;52149.31;5055144;28;20259;-87
2023/07/05 07:42:00;;;;;;;4.72;2.22;;;;;;;-145.69;100.00;52175.06;5054902;28;20215;-86
2023/07/05 07:44:27;;;;;;;7.93;2.40;;;;;;;-145.69;100.00;52167.13;5055053;28;20199;-86
2023/07/05 07:47:00;;;;;;;4.68;2.55;;;;;;;-145.69;100.00;52147.34;5054732;28;20494;-86
2023/07/05 07:49:26;;;;;;;4.13;2.35;;;;;;;-145.69;100.00;52153.28;5055265;28;20268;-86
2023/07/05 07:51:53;;;;;;;6.32;2.20;;;;;;;-145.69;100.00;52117.63;5054859;28;20234;-86
2023/07/05 07:54:26;;;;;;;2.42;1.75;;;;;;;-145.69;100.00;52155.25;5070101;28;20245;-86
2023/07/05 07:56:58;;;;;;;7.55;2.25;;;;;;;-145.69;100.00;52155.25;5075020;28;20210;-87
2023/07/05 07:59:27;;;;;;;5.93;1.85;;;;;;;-145.69;100.00;52147.34;5074777;28;20229;-86
2023/07/05 08:01:55;;;;;;;3.53;1.52;;;;;;;-145.69;100.00;52147.34;5074468;28;20248;-86
2023/07/05 08:04:22;;;;;;;5.15;1.40;;;;;;;-145.69;100.00;52137.44;5074399;28;20660;-86
2023/07/05 08:06:51;;;;;;;6.40;1.42;;;;;;;-145.69;100.00;52129.50;5074711;28;20210;-87
2023/07/05 08:09:23;;;;;;;2.05;1.52;;;;;;;-145.69;100.00;52127.53;5072589;28;20578;-86
2023/07/05 08:11:55;;;;;;;3.03;1.05;;;;;;;-145.69;100.00;52155.25;5074700;28;20228;-86
2023/07/05 08:14:22;;;;;;;1.50;1.05;;;;;;;-145.69;100.00;52181.00;5074440;28;20202;-87
2023/07/05 08:16:49;;;;;;;1.35;1.10;;;;;;;-145.69;100.00;52151.28;5074581;28;20252;-87
2023/07/05 08:19:19;;;;;;;1.58;0.63;;;;;;;-145.69;100.00;52139.41;5074330;28;20226;-85
2023/07/05 08:21:48;;;;;;;1.65;0.57;;;;;;;-145.69;100.00;52200.81;5074296;28;20285;-85
2023/07/05 08:24:16;;;;;;;0.73;0.50;;;;;;;-145.69;100.00;52159.22;5074108;28;20562;-87
2023/07/05 08:26:42;;;;;;;3.45;0.50;;;;;;;-145.69;100.00;52163.19;5073905;28;20473;-85
2023/07/05 08:29:09;;;;;;;1.23;0.70;;;;;;;-145.69;100.00;52167.13;5074570;28;20230;-88
2023/07/05 08:31:36;;;;;;;0.60;0.60;;;;;;;-145.69;100.00;52171.09;5074604;28;20252;-87
2023/07/05 08:34:03;;;;;;;0.43;0.43;;;;;;;-145.69;100.00;52159.22;5074509;28;20226;-89
2023/07/05 08:36:35;;;;;;;0.75;0.50;;;;;;;-145.69;100.00;52171.09;5074560;28;20648;-89
2023/07/05 08:39:05;;;;;;;0.77;0.40;;;;;;;-145.69;100.00;52139.41;5073451;28;20449;-90
2023/07/05 08:41:49;;;;;;;2.47;0.47;;;;;;;-145.69;100.00;52169.13;5074377;28;20206;-89
2023/07/05 08:44:23;;;;;;;1.00;0.45;;;;;;;-145.69;100.00;52167.13;5074447;28;20244;-89
2023/07/05 08:47:00;;;;;;;1.15;0.70;;;;;;;-145.69;100.00;52167.13;5074555;28;20226;-90
2023/07/05 08:49:32;;;;;;;0.68;0.57;;;;;;;-145.69;100.00;52175.06;5074143;28;20212;-90
2023/07/05 08:52:02;;;;;;;1.55;0.60;;;;;;;-145.69;100.00;52149.31;5074452;28;20226;-90
2023/07/05 08:54:32;;;;;;;0.77;0.60;;;;;;;-145.69;100.00;52200.81;5075065;28;20210;-90
2023/07/05 08:57:04;;;;;;;2.25;0.43;;;;;;;-145.69;100.00;52163.19;5074329;28;20208;-90
2023/07/05 08:59:35;;;;;;;0.82;0.70;;;;;;;-145.69;100.00;52186.94;5074112;28;20601;-88
2023/07/05 09:02:09;;;;;;;2.72;0.73;;;;;;;-145.69;100.00;52190.91;5074324;28;20198;-89
2023/07/05 09:04:36;;;;;;;1.05;0.70;;;;;;;-145.69;100.00;52179.03;5074276;28;20201;-89
2023/07/05 09:07:12;;;;;;;1.23;0.60;;;;;;;-145.69;100.00;52194.88;5074324;28;20210;-89
2023/07/05 09:09:55;;;;;;;5.10;0.65;;;;;;;-145.69;100.00;52194.88;5074089;28;20264;-88
2023/07/05 09:12:42;;;;;;;0.70;0.70;;;;;;;-145.69;100.00;52194.88;5074127;28;20217;-89
2023/07/05 09:15:15;;;;;;;3.40;0.88;;;;;;;-145.69;100.00;52186.94;5073850;28;20207;-89
2023/07/05 09:17:52;;;;;;;1.58;0.80;;;;;;;-145.69;100.00;52198.81;5073495;28;20446;-89
2023/07/05 09:20:54;;;;;;;0.75;0.75;;;;;;;-145.69;100.00;52171.09;5074093;28;20225;-90
2023/07/05 09:23:29;;;;;;;1.35;0.70;;;;;;;-145.69;100.00;52198.81;5074284;28;20200;-89
2023/07/05 09:26:02;;;;;;;1.42;0.98;;;;;;;-145.69;100.00;52177.03;5073814;28;20213;-90
2023/07/05 09:28:38;;;;;;;1.23;0.70;;;;;;;-145.69;100.00;52167.13;5074134;28;20199;-90
2023/07/05 09:31:11;;;;;;;0.90;0.60;;;;;;;-145.69;100.00;52165.16;5074101;28;20222;-89
2023/07/05 09:33:44;;;;;;;0.65;0.60;;;;;;;-145.69;100.00;52163.19;5074159;28;20241;-89
2023/07/05 09:36:20;;;;;;;1.67;0.80;;;;;;;-145.69;100.00;52155.25;5073899;28;20202;-89
2023/07/05 09:39:05;;;;;;;1.08;0.63;;;;;;;-145.69;100.00;52115.66;5073972;28;20229;-89
2023/07/05 09:41:41;;;;;;;4.35;0.70;;;;;;;-145.69;100.00;52115.66;5073614;28;20662;-89
2023/07/05 09:44:08;;;;;;;3.22;0.70;;;;;;;-145.69;100.00;52131.50;5073323;28;20201;-88
2023/07/05 09:46:37;;;;;;;0.82;0.70;;;;;;;-145.69;100.00;52139.41;5073589;28;20206;-89
2023/07/05 09:49:12;;;;;;;1.48;0.77;;;;;;;-145.69;100.00;52153.28;5073475;28;20281;-89
2023/07/05 09:51:41;;;;;;;1.75;0.93;;;;;;;-145.69;100.00;52115.66;5073561;28;20234;-89
2023/07/05 09:54:15;;;;;;;1.48;0.90;;;;;;;-145.69;100.00;52175.06;5075099;28;20201;-89
2023/07/05 09:56:57;;;;;;;1.40;0.82;;;;;;;-145.69;100.00;52143.38;5077726;28;20272;-88
2023/07/05 09:59:24;;;;;;;2.47;0.88;;;;;;;-145.69;100.00;52137.44;5075878;28;20233;-88
2023/07/05 10:01:56;;;;;;;1.45;1.05;;;;;;;-145.69;100.00;52155.25;5077367;28;20553;-89
2023/07/05 10:04:29;;;;;;;2.38;0.90;;;;;;;-145.69;100.00;52125.56;5076809;28;20562;-88
2023/07/05 10:07:00;;;;;;;1.15;0.90;;;;;;;-145.69;100.00;52145.34;5077157;28;20294;-88
2023/07/05 10:09:28;;;;;;;2.95;0.93;;;;;;;-145.69;100.00;52151.28;5077334;28;20206;-88
2023/07/05 10:11:57;;;;;;;1.85;1.00;;;;;;;-145.69;100.00;52115.66;5074822;28;20670;-88
2023/07/05 10:14:27;;;;;;;2.72;1.10;;;;;;;-145.69;100.00;52103.78;5056769;28;20199;-87
2023/07/05 10:16:55;;;;;;;0.90;0.70;;;;;;;-145.69;100.00;52099.81;5056939;28;20210;-89
2023/07/05 10:19:33;;;;;;;1.92;1.15;;;;;;;-145.69;100.00;52085.94;5056743;28;20218;-88
2023/07/05 10:22:06;;;;;;;1.60;0.85;;;;;;;-145.69;100.00;52131.50;5057053;28;20211;-89
2023/07/05 10:24:42;;;;;;;1.00;0.75;;;;;;;-145.69;100.00;52091.88;5056947;28;20232;-88
2023/07/05 10:27:25;;;;;;;3.15;1.15;;;;;;;-145.69;100.00;52151.28;5056958;28;20187;-87
2023/07/05 10:30:00;;;;;;;4.07;1.30;;;;;;;-145.69;100.00;52163.19;5056947;28;20601;-86
2023/07/05 10:32:27;;;;;;;2.30;1.40;;;;;;;-145.69;100.00;52129.50;5056702;28;20241;-87
2023/07/05 10:34:55;;;;;;;2.80;1.30;;;;;;;-145.69;100.00;52107.72;5056767;28;20200;-88
2023/07/05 10:37:31;;;;;;;1.92;1.30;;;;;;;-145.69;100.00;52121.59;5056420;28;20207;-88
2023/07/05 10:40:05;;;;;;;1.75;1.20;;;;;;;-145.69;100.00;52151.28;5056451;28;20250;-88
2023/07/05 10:42:32;;;;;;;4.07;1.50;;;;;;;-145.69;100.00;52147.34;5056434;28;20207;-87
2023/07/05 10:45:00;;;;;;;2.15;1.23;;;;;;;-145.69;100.00;52131.50;5056385;28;20199;-87
2023/07/05 10:47:28;;;;;;;1.88;1.33;;;;;;;-145.69;100.00;52186.94;5055006;28;20536;-87
2023/07/05 10:50:03;;;;;;;2.00;1.33;;;;;;;-145.69;100.00;52109.72;5055562;28;20215;-86
2023/07/05 10:52:31;;;;;;;2.80;1.38;;;;;;;-145.69;100.00;52167.13;5056436;28;20286;-87
2023/07/05 10:55:08;;;;;;;3.17;1.15;;;;;;;-145.69;100.00;52121.59;5055912;28;20196;-87
2023/07/05 10:57:39;;;;;;;3.83;1.40;;;;;;;-145.69;100.00;52107.72;5056075;28;20199;-86
2023/07/05 11:00:21;;;;;;;1.88;1.30;;;;;;;-145.69;100.00;52125.56;5055738;28;20231;-87
2023/07/05 11:02:55;;;;;;;1.58;1.33;;;;;;;-145.69;100.00;52107.72;5055953;28;20199;-86
2023/07/05 11:05:26;;;;;;;3.30;1.38;;;;;;;-145.69;100.00;52115.66;5054638;28;20206;-87
2023/07/05 11:07:56;;;;;;;6.40;1.30;;;;;;;-145.69;100.00;52093.88;5055843;28;20199;-88
2023/07/05 11:10:25;;;;;;;2.00;1.20;;;;;;;-145.69;100.00;52127.53;5056176;28;20242;-89
2023/07/05 11:12:55;;;;;;;2.08;1.35;;;;;;;-145.69;100.00;52119.63;5055508;28;20195;-87
2023/07/05 11:15:22;;;;;;;2.55;1.70;;;;;;;-145.69;100.00;52121.59;5055871;28;20199;-86
2023/07/05 11:17:50;;;;;;;2.65;1.55;;;;;;;-145.69;100.00;52135.47;5055245;28;20666;-86
2023/07/05 11:20:47;;;;;;;2.25;1.42;;;;;;;-145.69;100.00;52089.91;5055518;28;20318;-88